Time;durP1;ratioP1;P1;durP2;ratioP2;P2;SDS_P1;SDS_P2;PMS_P1;PMS_P2;Temp;Humidity;BMP_temperature;BMP_pressure;BME280_temperature;BME280_humidity;BME280_pressure;Samples;Min_cycle;Max_cycle;Signal;HPM_P1;HPM_P2
2022/02/04 00:23:53;;;;;;;19.00;10.40;;;;;;;0.79;86.96;98519.38;219135;1274;25333;-71
2022/02/04 00:29:15;;;;;;;18.10;9.80;;;;;;;0.76;87.21;98520.24;220005;1274;24247;-71
2022/02/04 00:34:48;;;;;;;20.40;10.90;;;;;;;0.72;87.16;98509.27;220010;1274;22664;-71
2022/02/04 00:40:16;;;;;;;21.60;10.80;;;;;;;0.73;87.46;98499.77;220060;1274;24423;-71
2022/02/04 00:45:26;;;;;;;20.50;10.30;;;;;;;0.77;87.52;98494.05;220024;1272;24237;-71
2022/02/04 00:56:15;;;;;;;24.90;13.70;;;;;;;0.88;87.55;98484.74;220235;1273;26561;-71
2022/02/04 01:28:27;;;;;;;43.50;22.20;;;;;;;1.22;87.77;98429.10;219577;1274;22715;-71
2022/02/04 01:33:33;;;;;;;39.50;21.20;;;;;;;1.24;87.46;98424.55;219909;1276;22709;-71
2022/02/04 01:38:35;;;;;;;40.80;20.80;;;;;;;1.26;87.70;98421.21;220336;1274;24289;-71
2022/02/04 01:43:39;;;;;;;51.60;23.30;;;;;;;1.29;87.84;98413.89;219997;1274;25414;-71
2022/02/04 01:48:45;;;;;;;44.20;22.00;;;;;;;1.32;87.76;98405.41;220191;1274;22574;-71
2022/02/04 01:53:57;;;;;;;44.10;23.10;;;;;;;1.34;87.39;98394.48;220177;1274;23982;-71
2022/02/04 01:59:00;;;;;;;43.30;22.60;;;;;;;1.39;87.76;98391.69;219987;1274;22544;-71
2022/02/04 02:04:18;;;;;;;46.30;25.20;;;;;;;1.42;87.64;98392.46;219778;1275;22550;-71
2022/02/04 02:09:51;;;;;;;46.30;23.90;;;;;;;1.43;87.66;98383.34;220142;1274;23119;-70
2022/02/04 02:15:17;;;;;;;41.50;20.20;;;;;;;1.45;87.61;98366.59;220029;1274;25431;-71
2022/02/04 02:42:14;;;;;;;44.80;22.90;;;;;;;1.57;87.89;98355.48;219861;1274;22552;-71
2022/02/04 02:52:47;;;;;;;54.10;26.80;;;;;;;1.52;87.79;98335.88;219020;1274;25387;-71
2022/02/04 03:03:17;;;;;;;54.10;28.90;;;;;;;1.24;87.30;98336.91;220047;1273;26342;-72
2022/02/04 03:08:21;;;;;;;52.50;28.00;;;;;;;1.12;87.45;98339.48;220122;1273;25316;-71
2022/02/04 03:13:28;;;;;;;57.90;29.90;;;;;;;1.02;87.45;98336.98;220198;1273;24275;-71
2022/02/04 03:18:35;;;;;;;62.40;31.50;;;;;;;0.94;87.51;98336.38;220213;1273;22541;-71
2022/02/04 03:23:40;;;;;;;53.50;27.90;;;;;;;0.89;87.58;98336.74;220092;1273;22561;-71
2022/02/04 03:28:54;;;;;;;60.70;28.60;;;;;;;0.81;87.69;98334.87;220093;1273;24251;-70
2022/02/04 03:33:56;;;;;;;60.60;30.50;;;;;;;0.72;87.82;98332.02;220213;1274;22728;-70
2022/02/04 03:38:59;;;;;;;64.90;35.00;;;;;;;0.62;87.54;98336.60;220147;1273;22729;-71
2022/02/04 03:44:02;;;;;;;68.20;36.40;;;;;;;0.51;87.69;98333.23;220282;1273;22613;-70
2022/02/04 03:49:08;;;;;;;67.80;33.00;;;;;;;0.43;88.09;98339.65;219970;1273;22709;-71
2022/02/04 03:54:10;;;;;;;66.40;32.00;;;;;;;0.33;87.87;98342.42;220021;1273;25353;-71
2022/02/04 03:59:15;;;;;;;65.80;33.10;;;;;;;0.27;88.18;98336.13;219967;1274;22566;-71
2022/02/04 04:04:20;;;;;;;74.90;35.30;;;;;;;0.22;88.45;98333.65;219982;1274;25533;-71
2022/02/04 04:09:22;;;;;;;73.40;35.50;;;;;;;0.13;88.28;98333.77;219131;1274;24712;-71
2022/02/04 04:14:24;;;;;;;68.10;34.60;;;;;;;-0.01;87.88;98327.63;219964;1274;24266;-71
2022/02/04 04:19:27;;;;;;;72.70;37.80;;;;;;;-0.13;87.78;98331.42;219936;1274;24239;-72
2022/02/04 04:24:32;;;;;;;75.00;38.50;;;;;;;-0.17;88.29;98327.50;219974;1274;22531;-71
2022/02/04 04:29:34;;;;;;;76.70;38.00;;;;;;;-0.16;88.35;98319.81;219865;1274;22590;-71
2022/02/04 04:34:37;;;;;;;79.70;40.10;;;;;;;-0.16;88.58;98320.13;219995;1274;22551;-71
2022/02/04 04:40:07;;;;;;;81.20;38.80;;;;;;;-0.14;88.74;98323.14;219894;1274;22962;-72
2022/02/04 05:28:38;;;;;;;78.60;40.40;;;;;;;0.66;89.07;98291.87;220001;1273;25054;-70
2022/02/04 05:33:41;;;;;;;86.20;42.30;;;;;;;0.68;89.01;98291.65;220272;1273;22567;-72
2022/02/04 05:38:43;;;;;;;78.20;39.20;;;;;;;0.74;89.39;98282.01;220074;1273;22590;-71
2022/02/04 05:44:14;;;;;;;88.80;45.30;;;;;;;0.77;89.30;98284.12;220091;1273;25393;-71
2022/02/04 05:49:35;;;;;;;66.90;34.80;;;;;;;0.80;88.95;98278.05;220020;1273;22613;-71
2022/02/04 05:54:49;;;;;;;59.40;30.60;;;;;;;0.76;88.84;98285.68;220117;1274;22784;-71
2022/02/04 06:05:52;;;;;;;61.90;31.60;;;;;;;0.67;88.79;98273.39;220107;1273;25954;-70
2022/02/04 06:26:55;;;;;;;65.30;32.10;;;;;;;0.81;88.82;98280.86;220060;1273;22639;-71
2022/02/04 06:32:00;;;;;;;67.60;32.70;;;;;;;0.85;88.58;98291.23;220228;1273;23031;-70
2022/02/04 06:37:13;;;;;;;62.70;32.20;;;;;;;0.89;88.52;98306.11;219229;1273;24282;-71
2022/02/04 06:42:27;;;;;;;48.40;26.10;;;;;;;0.93;88.61;98309.40;220342;1273;22538;-70
2022/02/04 06:47:36;;;;;;;50.20;26.40;;;;;;;0.98;88.62;98310.27;220388;1273;25306;-71
2022/02/04 06:52:43;;;;;;;36.00;15.70;;;;;;;1.05;88.63;98306.40;220466;1273;24753;-70
2022/02/04 06:57:47;;;;;;;25.80;13.90;;;;;;;1.13;88.11;98309.70;220960;1273;22617;-70
2022/02/04 07:02:49;;;;;;;30.40;15.30;;;;;;;1.23;88.26;98316.09;220831;1273;23504;-72
2022/02/04 07:08:04;;;;;;;29.80;17.30;;;;;;;1.34;87.90;98325.67;220751;1273;22652;-71
2022/02/04 07:13:19;;;;;;;29.50;14.40;;;;;;;1.44;87.73;98326.20;221102;1273;27452;-71
2022/02/04 07:23:51;;;;;;;26.60;13.80;;;;;;;1.61;87.07;98328.09;220739;1273;23297;-71
2022/02/04 07:29:15;;;;;;;26.60;13.10;;;;;;;1.69;86.89;98329.38;220702;1273;22663;-72
2022/02/04 07:45:06;;;;;;;19.90;9.80;;;;;;;1.87;85.99;98336.84;220520;1274;25499;-71
2022/02/04 07:50:20;;;;;;;21.40;9.20;;;;;;;1.94;85.77;98336.70;220910;1273;22673;-72
2022/02/04 07:55:34;;;;;;;17.90;9.20;;;;;;;1.99;85.73;98335.26;220803;1273;22677;-71
2022/02/04 08:00:45;;;;;;;17.90;8.50;;;;;;;2.07;85.39;98335.14;220826;1273;22570;-72
2022/02/04 08:06:08;;;;;;;19.80;9.60;;;;;;;2.15;85.04;98334.36;220871;1273;22512;-72
2022/02/04 08:11:38;;;;;;;15.50;7.80;;;;;;;2.27;85.22;98331.17;220925;1273;22585;-72
2022/02/04 08:23:32;;;;;;;13.60;5.60;;;;;;;2.63;84.39;98327.81;220300;1273;26426;-72
2022/02/04 08:50:41;;;;;;;11.10;5.40;;;;;;;3.04;82.15;98334.61;220920;1273;22589;-72
2022/02/04 08:55:51;;;;;;;9.50;4.90;;;;;;;3.11;82.48;98342.71;221163;1273;22794;-71
2022/02/04 09:01:29;;;;;;;13.40;6.70;;;;;;;3.15;82.06;98346.95;220614;1273;25312;-72
2022/02/04 09:07:03;;;;;;;10.50;5.40;;;;;;;3.19;81.88;98353.21;220604;1273;24219;-72
2022/02/04 09:23:54;;;;;;;19.00;8.20;;;;;;;3.45;81.54;98340.54;220594;1273;22551;-72
2022/02/04 09:29:02;;;;;;;10.50;5.70;;;;;;;3.49;81.58;98332.64;220509;1273;22545;-71
2022/02/04 09:34:15;;;;;;;10.00;5.60;;;;;;;3.55;81.67;98330.19;220857;1274;25359;-71
2022/02/04 09:39:17;;;;;;;14.90;7.10;;;;;;;3.64;81.52;98341.85;220957;1274;22595;-71
2022/02/04 09:44:20;;;;;;;12.10;5.50;;;;;;;3.67;81.28;98333.61;220623;1273;22563;-71
2022/02/04 09:49:29;;;;;;;12.40;6.10;;;;;;;3.70;81.05;98337.82;220679;1274;24219;-72
2022/02/04 10:22:34;;;;;;;;;;;;;;;3.69;79.78;98331.87;220877;1273;22542;-71
2022/02/04 10:27:55;;;;;;;13.50;7.40;;;;;;;3.68;79.51;98331.56;220768;1273;25094;-71
2022/02/04 10:33:02;;;;;;;15.50;7.70;;;;;;;3.68;78.78;98325.99;220782;1273;22736;-71
2022/02/04 10:38:37;;;;;;;15.40;6.90;;;;;;;3.69;78.91;98322.08;220594;1274;22773;-72
2022/02/04 10:44:21;;;;;;;14.10;7.30;;;;;;;3.71;78.84;98315.20;221143;1274;22589;-71
2022/02/04 10:50:01;;;;;;;13.60;7.40;;;;;;;3.72;78.38;98311.67;220268;1274;23223;-72
2022/02/04 10:55:59;;;;;;;18.70;8.10;;;;;;;3.79;78.44;98314.73;220809;1273;22592;-73
2022/02/04 11:08:27;;;;;;;14.60;7.20;;;;;;;4.18;78.28;98310.87;220735;1273;331359;-71
2022/02/04 11:37:03;;;;;;;12.20;6.00;;;;;;;4.99;74.61;98296.34;220503;1273;22545;-71
2022/02/04 11:54:53;;;;;;;12.30;6.70;;;;;;;4.67;75.25;98285.18;220761;1273;25264;-71
2022/02/04 12:00:37;;;;;;;13.80;6.90;;;;;;;4.54;75.62;98280.90;220676;1273;23239;-72
2022/02/04 12:05:50;;;;;;;12.70;7.30;;;;;;;4.50;75.80;98282.53;220820;1274;22647;-73
2022/02/04 12:11:08;;;;;;;15.30;7.70;;;;;;;4.48;76.01;98278.16;220554;1273;25441;-71
2022/02/04 12:16:21;;;;;;;14.40;8.00;;;;;;;4.53;76.34;98266.56;220676;1274;27401;-72
2022/02/04 12:21:26;;;;;;;11.80;6.70;;;;;;;4.58;76.08;98268.02;220473;1273;25502;-71
2022/02/04 12:27:34;;;;;;;10.40;6.40;;;;;;;4.57;75.73;98265.35;220460;1274;22693;-71
2022/02/04 12:32:50;;;;;;;11.50;5.60;;;;;;;4.52;76.19;98261.79;220721;1273;22583;-68
2022/02/04 12:38:04;;;;;;;14.30;6.50;;;;;;;4.53;76.50;98258.66;220691;1274;22740;-71
2022/02/04 12:43:12;;;;;;;11.30;6.60;;;;;;;4.55;75.98;98264.39;220723;1274;26069;-70
2022/02/04 12:48:19;;;;;;;10.40;6.10;;;;;;;4.52;76.25;98256.58;221012;1274;22723;-70
2022/02/04 12:53:29;;;;;;;12.10;5.60;;;;;;;4.54;76.10;98261.05;220716;1274;23113;-70
2022/02/04 12:59:09;;;;;;;10.20;5.50;;;;;;;4.54;76.13;98259.30;219433;1274;22563;-70
2022/02/04 13:09:51;;;;;;;12.80;7.00;;;;;;;4.66;77.07;98242.52;219103;1273;22568;-70
2022/02/04 13:15:13;;;;;;;12.40;6.10;;;;;;;4.72;76.62;98235.94;220613;1274;25415;-71
2022/02/04 13:20:27;;;;;;;14.60;7.30;;;;;;;4.79;76.53;98233.40;220734;1274;22994;-70
2022/02/04 13:25:34;;;;;;;15.60;8.30;;;;;;;4.87;76.65;98229.06;220758;1273;22575;-70
2022/02/04 13:31:14;;;;;;;;;;;;;;;;;;;;;
2022/02/04 13:36:38;;;;;;;16.30;7.80;;;;;;;4.82;76.37;98218.65;220372;1274;22569;-71
2022/02/04 13:53:34;;;;;;;15.60;8.70;;;;;;;4.64;76.85;98221.81;220843;1273;22671;-72
2022/02/04 13:58:57;;;;;;;17.70;10.40;;;;;;;4.54;76.97;98220.25;220780;1274;22544;-72
2022/02/04 14:05:42;;;;;;;14.60;8.20;;;;;;;4.48;77.29;98220.71;221294;1274;23155;-72
2022/02/04 14:11:11;;;;;;;15.70;9.80;;;;;;;4.49;77.79;98217.55;221151;1273;26893;-71
2022/02/04 14:16:41;;;;;;;21.20;12.60;;;;;;;4.49;77.85;98214.73;220752;1273;24125;-70
2022/02/04 14:21:53;;;;;;;17.50;9.20;;;;;;;4.50;78.07;98213.19;221193;1274;24374;-71
2022/02/04 14:27:04;;;;;;;16.80;10.20;;;;;;;4.52;78.04;98213.77;220941;1273;24249;-69
2022/02/04 14:32:38;;;;;;;;;;;;;;;;;;;;;
2022/02/04 15:06:04;;;;;;;19.10;11.10;;;;;;;4.32;79.15;98219.51;219099;1273;24388;-70
2022/02/04 15:11:51;;;;;;;22.70;11.40;;;;;;;4.25;79.16;98214.98;220468;1274;22611;-70
2022/02/04 15:16:53;;;;;;;18.10;10.30;;;;;;;4.19;79.50;98212.25;219347;1273;25372;-71
2022/02/04 15:22:08;;;;;;;27.50;16.50;;;;;;;4.11;79.59;98212.54;220182;1274;22547;-72
2022/02/04 15:27:15;;;;;;;20.60;13.30;;;;;;;4.08;79.93;98207.17;220087;1274;22784;-70
2022/02/04 15:32:29;;;;;;;20.60;12.10;;;;;;;4.06;80.12;98217.02;219380;1273;24043;-69
2022/02/04 15:37:51;;;;;;;24.00;14.50;;;;;;;4.03;80.02;98204.19;219548;1271;22617;-70
2022/02/04 15:42:59;;;;;;;19.60;12.00;;;;;;;3.97;80.11;98204.16;220307;1273;25262;-69
2022/02/04 15:54:05;;;;;;;21.90;12.70;;;;;;;3.80;80.42;98197.04;218851;1273;26347;-71
2022/02/04 15:59:25;;;;;;;21.10;12.40;;;;;;;3.74;80.65;98188.05;219938;1274;25543;-71
2022/02/04 16:04:30;;;;;;;20.60;11.20;;;;;;;3.71;80.67;98186.66;220249;1273;24247;-70
2022/02/04 16:09:32;;;;;;;22.30;12.30;;;;;;;3.68;80.94;98190.40;220168;1273;22555;-70
2022/02/04 16:20:17;;;;;;;29.20;14.60;;;;;;;3.61;81.03;98178.04;219445;1273;22563;-72
2022/02/04 16:25:59;;;;;;;21.60;10.90;;;;;;;3.58;80.98;98180.40;219429;1273;22570;-70
2022/02/04 16:31:14;;;;;;;24.90;11.40;;;;;;;3.57;81.07;98191.15;220452;1273;23272;-70
2022/02/04 16:36:22;;;;;;;18.50;10.80;;;;;;;3.57;81.12;98186.17;220274;1273;22617;-70
2022/02/04 16:42:04;;;;;;;20.40;11.90;;;;;;;3.55;81.19;98187.48;219131;1273;22600;-71
2022/02/04 16:47:07;;;;;;;24.60;14.10;;;;;;;3.54;81.23;98183.39;220427;1274;25453;-70
2022/02/04 16:52:15;;;;;;;22.90;13.10;;;;;;;3.55;81.29;98181.51;220620;1273;22613;-71
2022/02/04 16:57:28;;;;;;;21.20;11.40;;;;;;;3.55;81.39;98182.55;220441;1273;24148;-72
2022/02/04 17:02:36;;;;;;;22.70;11.60;;;;;;;3.54;81.35;98183.08;220666;1273;22718;-71
2022/02/04 17:07:44;;;;;;;24.30;13.30;;;;;;;3.53;81.43;98180.31;220457;1273;22592;-70
2022/02/04 17:12:47;;;;;;;21.80;11.80;;;;;;;3.51;81.33;98182.92;220515;1273;23257;-70
2022/02/04 17:17:50;;;;;;;18.00;11.10;;;;;;;3.51;81.40;98179.84;220771;1273;22654;-71
2022/02/04 17:23:07;;;;;;;;;;;;;;;;;;;;;
2022/02/04 17:28:10;;;;;;;44.70;24.60;;;;;;;3.55;81.51;98174.92;220251;1273;22584;-70
2022/02/04 17:33:22;;;;;;;20.90;12.40;;;;;;;3.60;81.45;98171.63;220375;1273;23851;-70
2022/02/04 17:38:29;;;;;;;20.80;10.80;;;;;;;3.59;81.20;98169.11;220297;1273;25393;-70
2022/02/04 17:44:01;;;;;;;22.50;13.90;;;;;;;3.59;81.25;98160.28;220679;1273;23254;-70
2022/02/04 17:49:12;;;;;;;23.30;13.90;;;;;;;3.58;81.18;98154.02;220552;1273;25428;-71
2022/02/04 17:54:18;;;;;;;27.50;15.20;;;;;;;3.57;81.10;98147.52;220217;1274;23306;-71
2022/02/04 18:09:58;;;;;;;24.10;13.90;;;;;;;3.57;81.12;98127.48;220177;1274;23225;-71
2022/02/04 18:15:00;;;;;;;25.80;13.90;;;;;;;3.62;81.11;98122.20;220036;1274;22560;-70
2022/02/04 18:20:11;;;;;;;25.00;14.10;;;;;;;3.64;80.75;98119.66;220182;1274;22612;-70
2022/02/04 18:25:16;;;;;;;19.90;10.30;;;;;;;3.65;80.80;98119.08;220139;1276;22898;-72
2022/02/04 18:30:24;;;;;;;22.30;12.00;;;;;;;3.65;80.71;98117.18;220222;1274;22585;-70
2022/02/04 18:35:38;;;;;;;22.10;12.40;;;;;;;3.67;80.52;98111.73;220056;1275;22610;-70
2022/02/04 18:40:58;;;;;;;21.90;11.80;;;;;;;3.69;80.51;98106.65;220092;1274;22557;-71
2022/02/04 19:02:03;;;;;;;19.10;10.30;;;;;;;3.79;79.95;98098.69;220258;1273;22554;-70
2022/02/04 19:07:14;;;;;;;14.90;9.00;;;;;;;3.81;79.80;98088.42;220312;1273;22563;-72
2022/02/04 19:12:21;;;;;;;15.70;9.90;;;;;;;3.83;79.66;98086.52;219512;1273;25325;-71
2022/02/04 19:27:32;;;;;;;17.50;10.30;;;;;;;3.87;79.16;98083.39;220050;1274;22548;-70
2022/02/04 19:32:36;;;;;;;19.00;10.70;;;;;;;3.86;79.15;98073.85;220400;1273;25270;-70
2022/02/04 19:37:38;;;;;;;16.30;8.90;;;;;;;3.91;79.05;98075.63;219238;1273;22629;-70
2022/02/04 19:42:48;;;;;;;18.40;11.40;;;;;;;3.93;79.28;98072.23;219418;1273;22544;-71
2022/02/04 19:47:56;;;;;;;20.70;10.20;;;;;;;3.94;79.12;98065.66;219343;1273;24935;-70
2022/02/04 20:25:09;;;;;;;19.40;10.50;;;;;;;3.97;78.88;98043.19;220083;1274;22722;-71
2022/02/04 20:30:30;;;;;;;16.80;8.60;;;;;;;3.97;78.98;98043.35;220030;1274;22637;-70
2022/02/04 20:35:32;;;;;;;18.00;9.80;;;;;;;4.00;78.90;98038.21;219186;1274;23650;-68
2022/02/04 20:40:39;;;;;;;18.50;9.50;;;;;;;4.02;79.05;98035.20;219309;1274;22547;-70
2022/02/04 20:45:41;;;;;;;18.40;10.30;;;;;;;4.03;78.87;98033.30;219264;1274;22707;-72
2022/02/04 20:50:46;;;;;;;16.70;9.80;;;;;;;4.04;78.82;98025.96;219169;1274;22570;-71
2022/02/04 20:55:51;;;;;;;16.50;9.40;;;;;;;4.06;78.82;98028.79;220336;1273;26393;-70
2022/02/04 21:00:55;;;;;;;13.80;8.90;;;;;;;4.09;78.84;98022.48;219467;1273;25433;-71
2022/02/04 21:06:02;;;;;;;16.60;8.50;;;;;;;4.11;78.80;98017.34;219575;1273;24955;-70
2022/02/04 21:16:54;;;;;;;16.40;9.40;;;;;;;4.13;78.67;98020.95;220266;1273;22666;-71
2022/02/04 21:21:57;;;;;;;16.90;8.80;;;;;;;4.14;78.83;98019.09;220305;1273;22692;-70
2022/02/04 21:27:05;;;;;;;13.20;7.20;;;;;;;4.14;78.70;98023.44;219344;1273;23951;-70
2022/02/04 21:32:18;;;;;;;15.20;8.30;;;;;;;4.15;78.45;98022.54;220332;1273;22569;-71
2022/02/04 21:37:26;;;;;;;14.90;8.10;;;;;;;4.15;78.60;98023.65;220403;1273;22715;-71
2022/02/04 21:42:31;;;;;;;15.60;9.80;;;;;;;4.12;78.54;98022.01;220105;1273;25860;-71
2022/02/04 21:47:46;;;;;;;17.50;10.20;;;;;;;4.08;78.71;98016.96;220323;1273;24164;-71
2022/02/04 21:52:55;;;;;;;18.20;8.90;;;;;;;4.06;78.66;98018.92;220516;1273;22739;-71
2022/02/04 21:58:14;;;;;;;17.90;10.20;;;;;;;4.05;78.87;98021.47;220192;1273;23178;-71
2022/02/04 22:03:44;;;;;;;15.50;9.50;;;;;;;4.05;79.02;98022.54;220274;1273;25552;-71
2022/02/04 22:09:05;;;;;;;17.50;9.30;;;;;;;4.05;78.90;98024.81;220371;1273;22922;-71
2022/02/04 22:25:21;;;;;;;18.40;9.20;;;;;;;4.00;79.25;98006.84;220420;1273;22567;-71
2022/02/04 22:30:27;;;;;;;18.40;10.10;;;;;;;3.99;79.11;98001.31;220007;1273;22633;-72
2022/02/04 22:57:15;;;;;;;16.30;9.40;;;;;;;3.98;79.91;97985.52;219958;1274;22557;-71
2022/02/04 23:02:39;;;;;;;;;;;;;;;;;;;;;
2022/02/04 23:07:54;;;;;;;14.50;8.80;;;;;;;4.09;80.16;97973.02;219871;1274;368458;-71
2022/02/04 23:13:30;;;;;;;15.00;8.30;;;;;;;4.10;80.11;97969.52;219932;1274;22587;-71
2022/02/04 23:18:38;;;;;;;16.60;8.80;;;;;;;4.09;80.16;97962.58;220291;1274;25900;-71
2022/02/04 23:24:03;;;;;;;15.00;8.00;;;;;;;4.07;80.13;97952.08;219019;1276;23600;-70
2022/02/04 23:46:06;;;;;;;12.20;7.60;;;;;;;3.99;80.34;97926.58;220027;1274;22594;-71
2022/02/04 23:51:07;;;;;;;11.40;7.50;;;;;;;3.96;80.27;97917.47;219938;1274;22567;-70
2022/02/04 23:56:14;;;;;;;13.20;7.80;;;;;;;3.97;80.50;97916.15;220130;1274;22545;-71
